Time;durP1;ratioP1;P1;durP2;ratioP2;P2;SDS_P1;SDS_P2;PMS_P1;PMS_P2;Temp;Humidity;BMP_temperature;BMP_pressure;BME280_temperature;BME280_humidity;BME280_pressure;Samples;Min_cycle;Max_cycle;Signal;HPM_P1;HPM_P2
2021/08/19 00:00:06;;;;;;;3.00;2.10;;;18.20;87.00;;;;;;5047661;28;20548;-74
2021/08/19 00:02:32;;;;;;;2.17;1.60;;;18.20;87.30;;;;;;5047618;28;20660;-76
2021/08/19 00:04:58;;;;;;;1.67;1.47;;;18.10;87.40;;;;;;5047131;28;20446;-73
2021/08/19 00:07:24;;;;;;;3.10;1.70;;;18.20;87.40;;;;;;5046302;28;20427;-74
2021/08/19 00:09:50;;;;;;;2.60;1.80;;;18.20;87.40;;;;;;5045915;28;20477;-74
2021/08/19 00:12:15;;;;;;;2.57;1.90;;;18.10;87.40;;;;;;5043616;28;20229;-75
2021/08/19 00:14:41;;;;;;;3.07;1.70;;;18.20;87.40;;;;;;5050998;28;20923;-74
2021/08/19 00:17:08;;;;;;;2.70;1.60;;;18.20;87.40;;;;;;5056166;28;20205;-74
2021/08/19 00:19:34;;;;;;;2.00;1.70;;;18.20;87.60;;;;;;5057600;28;20195;-74
2021/08/19 00:22:04;;;;;;;3.63;1.83;;;18.30;87.40;;;;;;5056752;28;20466;-74
2021/08/19 00:24:30;;;;;;;2.00;1.70;;;18.40;86.80;;;;;;5056398;28;20420;-75
2021/08/19 00:26:56;;;;;;;2.10;1.90;;;18.30;87.00;;;;;;5070721;28;20427;-74
2021/08/19 00:29:22;;;;;;;2.43;1.80;;;18.30;86.90;;;;;;5066776;28;20428;-74
2021/08/19 00:31:49;;;;;;;4.83;1.90;;;18.20;87.10;;;;;;5071878;28;20223;-74
2021/08/19 00:34:15;;;;;;;2.03;1.60;;;18.20;87.60;;;;;;5067304;28;20207;-74
2021/08/19 00:36:41;;;;;;;4.23;2.30;;;18.30;87.40;;;;;;5062951;28;21017;-75
2021/08/19 00:39:07;;;;;;;2.77;1.80;;;18.10;87.60;;;;;;5052158;28;20419;-75
2021/08/19 00:41:35;;;;;;;3.60;2.27;;;17.90;88.60;;;;;;5050049;28;20192;-75
2021/08/19 00:44:02;;;;;;;3.50;1.70;;;18.00;89.20;;;;;;5040237;28;20279;-76
2021/08/19 00:46:32;;;;;;;2.30;1.60;;;18.00;89.00;;;;;;5048747;28;20917;-74
2021/08/19 00:49:05;;;;;;;2.97;1.87;;;17.90;89.00;;;;;;5050675;28;20415;-75
2021/08/19 00:51:42;;;;;;;2.37;1.60;;;17.90;89.00;;;;;;5040275;28;20438;-74
2021/08/19 00:54:20;;;;;;;2.73;1.50;;;17.90;89.60;;;;;;5059339;28;20493;-76
2021/08/19 00:56:46;;;;;;;3.60;1.80;;;17.90;89.30;;;;;;5055867;28;20495;-75
2021/08/19 00:59:20;;;;;;;1.97;1.53;;;17.80;89.60;;;;;;5049568;28;20925;-75
2021/08/19 01:01:46;;;;;;;1.43;1.40;;;17.80;89.60;;;;;;5055801;28;20224;-74
2021/08/19 01:04:12;;;;;;;3.63;1.63;;;17.80;89.50;;;;;;5062388;28;20430;-75
2021/08/19 01:06:40;;;;;;;5.43;1.90;;;17.70;89.60;;;;;;5071374;28;20182;-76
2021/08/19 01:09:08;;;;;;;2.00;1.43;;;17.80;89.50;;;;;;5051070;28;20414;-74
2021/08/19 01:11:35;;;;;;;2.33;1.70;;;17.80;89.20;;;;;;5070960;28;20524;-74
2021/08/19 01:14:03;;;;;;;1.70;1.57;;;17.80;89.00;;;;;;5075471;28;20446;-74
2021/08/19 01:16:28;;;;;;;1.87;1.63;;;17.80;89.20;;;;;;5069047;28;20417;-75
2021/08/19 01:18:54;;;;;;;3.13;1.47;;;17.90;89.00;;;;;;5059934;28;20426;-73
2021/08/19 01:21:20;;;;;;;1.67;1.37;;;17.90;88.70;;;;;;5064191;28;20262;-74
2021/08/19 01:23:46;;;;;;;3.13;1.67;;;18.00;88.10;;;;;;5065078;28;20185;-74
2021/08/19 01:26:20;;;;;;;2.13;1.77;;;17.90;88.40;;;;;;5065633;28;20275;-75
2021/08/19 01:28:47;;;;;;;1.80;1.40;;;17.90;88.70;;;;;;5063313;28;20427;-76
2021/08/19 01:31:18;;;;;;;1.70;1.40;;;18.00;88.40;;;;;;5061932;28;20477;-74
2021/08/19 01:33:47;;;;;;;2.87;1.50;;;18.10;88.10;;;;;;5062285;28;20433;-76
2021/08/19 01:36:14;;;;;;;2.00;1.57;;;18.20;87.60;;;;;;5061472;28;20457;-76
2021/08/19 01:38:41;;;;;;;2.87;1.87;;;18.20;87.40;;;;;;5056538;28;20463;-76
2021/08/19 01:41:08;;;;;;;2.30;1.70;;;18.10;87.60;;;;;;5057994;28;20430;-76
2021/08/19 01:43:44;;;;;;;3.03;1.77;;;18.00;88.00;;;;;;5056507;28;20430;-75
2021/08/19 01:46:12;;;;;;;2.00;1.40;;;18.00;88.30;;;;;;5056305;28;21070;-75
2021/08/19 01:48:42;;;;;;;2.97;1.70;;;18.00;88.30;;;;;;5051088;28;20515;-75
2021/08/19 01:51:21;;;;;;;2.80;1.80;;;18.00;88.00;;;;;;5057393;28;20485;-75
2021/08/19 01:53:48;;;;;;;3.40;1.60;;;17.90;88.30;;;;;;5049079;28;20512;-76
2021/08/19 01:56:14;;;;;;;3.10;1.80;;;17.90;88.60;;;;;;5048295;28;20426;-76
2021/08/19 01:58:40;;;;;;;3.20;1.60;;;17.80;88.90;;;;;;5057144;28;20515;-74
2021/08/19 02:01:07;;;;;;;2.63;1.90;;;17.80;88.90;;;;;;5053493;28;20620;-74
2021/08/19 02:03:32;;;;;;;2.03;1.60;;;17.80;89.00;;;;;;5037895;28;20418;-75
2021/08/19 02:05:58;;;;;;;4.63;2.67;;;17.70;89.50;;;;;;5050883;28;20415;-74
2021/08/19 02:08:24;;;;;;;2.60;1.87;;;17.80;89.60;;;;;;5046531;28;20192;-74
2021/08/19 02:10:49;;;;;;;2.77;2.00;;;17.80;89.30;;;;;;5051451;28;20347;-75
2021/08/19 02:13:15;;;;;;;1.87;1.47;;;17.90;89.20;;;;;;5046524;28;20196;-75
2021/08/19 02:15:41;;;;;;;2.53;1.60;;;18.00;88.70;;;;;;5053150;28;20639;-74
2021/08/19 02:18:07;;;;;;;1.97;1.47;;;18.00;88.60;;;;;;5054176;28;20544;-74
2021/08/19 02:20:34;;;;;;;2.77;1.80;;;18.00;88.40;;;;;;5051765;28;20545;-75
2021/08/19 02:23:01;;;;;;;1.60;1.40;;;18.00;88.40;;;;;;5054281;28;20191;-73
2021/08/19 02:25:28;;;;;;;2.30;1.90;;;18.00;88.60;;;;;;5048464;28;20469;-74
2021/08/19 02:27:54;;;;;;;1.40;1.30;;;18.00;88.40;;;;;;5047078;28;21208;-74
2021/08/19 02:30:20;;;;;;;2.37;1.77;;;18.00;88.60;;;;;;5045651;28;20529;-74
2021/08/19 02:32:52;;;;;;;3.43;2.00;;;18.10;88.30;;;;;;5044896;28;20509;-75
2021/08/19 02:35:19;;;;;;;1.90;1.50;;;18.00;88.30;;;;;;5046285;28;20531;-75
2021/08/19 02:37:44;;;;;;;5.20;3.00;;;18.10;88.30;;;;;;5051264;28;20467;-74
2021/08/19 02:40:11;;;;;;;1.83;1.47;;;18.10;87.80;;;;;;5042725;28;20720;-74
2021/08/19 02:42:36;;;;;;;1.60;1.40;;;18.00;88.00;;;;;;5047677;28;20183;-75
2021/08/19 02:45:02;;;;;;;2.40;1.90;;;18.10;88.00;;;;;;5052684;28;20433;-74
2021/08/19 02:47:28;;;;;;;2.33;1.60;;;18.10;87.60;;;;;;5046756;28;20195;-75
2021/08/19 02:49:54;;;;;;;1.70;1.60;;;18.20;87.40;;;;;;5048976;28;20808;-75
2021/08/19 02:52:21;;;;;;;1.90;1.40;;;18.10;87.60;;;;;;5042826;28;20233;-74
2021/08/19 02:54:47;;;;;;;3.00;1.70;;;18.20;87.60;;;;;;5047239;28;20196;-74
2021/08/19 02:57:13;;;;;;;1.50;1.40;;;18.20;87.30;;;;;;5048541;28;20470;-75
2021/08/19 02:59:38;;;;;;;2.33;1.77;;;18.20;87.10;;;;;;5052582;28;20189;-74
2021/08/19 03:02:04;;;;;;;1.70;1.37;;;18.10;87.10;;;;;;5051148;28;20209;-76
2021/08/19 03:04:30;;;;;;;3.83;1.47;;;18.10;87.70;;;;;;5049027;28;20257;-74
2021/08/19 03:06:55;;;;;;;3.07;2.10;;;18.00;88.00;;;;;;5045077;28;20192;-74
2021/08/19 03:09:21;;;;;;;2.00;1.67;;;18.10;87.70;;;;;;5046000;28;20227;-75
2021/08/19 03:11:47;;;;;;;2.30;1.60;;;18.00;87.70;;;;;;5048360;28;20212;-75
2021/08/19 03:14:13;;;;;;;2.30;1.70;;;18.00;88.00;;;;;;5045269;28;20190;-76
2021/08/19 03:16:38;;;;;;;3.17;2.20;;;18.00;87.80;;;;;;5048039;28;20184;-75
2021/08/19 03:19:04;;;;;;;2.60;1.90;;;18.00;87.70;;;;;;5042854;28;20816;-75
2021/08/19 03:21:30;;;;;;;3.00;1.73;;;18.00;87.70;;;;;;5046891;28;20211;-75
2021/08/19 03:23:55;;;;;;;2.20;1.70;;;18.00;87.70;;;;;;5049312;28;20279;-75
2021/08/19 03:26:21;;;;;;;2.50;1.73;;;17.90;87.70;;;;;;5043048;28;20196;-76
2021/08/19 03:28:47;;;;;;;3.00;2.07;;;17.90;87.80;;;;;;5049017;28;20212;-74
2021/08/19 03:31:13;;;;;;;2.73;1.93;;;17.80;88.30;;;;;;5040362;28;20242;-75
2021/08/19 03:33:38;;;;;;;3.17;1.77;;;17.80;88.40;;;;;;5051510;28;20250;-75
2021/08/19 03:36:05;;;;;;;3.40;2.63;;;17.70;88.30;;;;;;5049260;28;20208;-74
2021/08/19 03:38:31;;;;;;;2.57;1.90;;;17.70;88.40;;;;;;5043878;28;20224;-75
2021/08/19 03:40:57;;;;;;;3.57;1.90;;;17.80;88.60;;;;;;5044240;28;20949;-75
2021/08/19 03:43:23;;;;;;;2.70;1.97;;;17.80;88.60;;;;;;5044488;28;20432;-75
2021/08/19 03:45:49;;;;;;;2.30;1.80;;;17.90;87.70;;;;;;5048081;28;20559;-75
2021/08/19 03:48:16;;;;;;;2.50;1.90;;;17.70;88.00;;;;;;5042985;28;20200;-75
2021/08/19 03:50:43;;;;;;;8.00;2.33;;;17.70;88.30;;;;;;5050786;28;20212;-75
2021/08/19 03:53:08;;;;;;;4.17;2.40;;;17.70;88.40;;;;;;5039216;28;20445;-76
2021/08/19 03:55:34;;;;;;;2.90;1.97;;;17.70;88.30;;;;;;5051802;28;20430;-75
2021/08/19 03:58:00;;;;;;;2.50;2.10;;;17.60;88.40;;;;;;5047003;28;20219;-75
2021/08/19 04:00:26;;;;;;;2.87;2.00;;;17.70;88.30;;;;;;5044148;28;20204;-75
2021/08/19 04:02:51;;;;;;;3.23;1.50;;;17.70;88.10;;;;;;5048409;28;20200;-74
2021/08/19 04:05:17;;;;;;;2.70;1.93;;;17.70;88.10;;;;;;5049835;28;20229;-75
2021/08/19 04:07:43;;;;;;;3.37;2.10;;;17.60;88.30;;;;;;5044441;28;20238;-75
2021/08/19 04:10:09;;;;;;;3.23;2.20;;;17.70;88.10;;;;;;5048564;28;20180;-74
2021/08/19 04:12:36;;;;;;;6.10;2.20;;;17.60;88.70;;;;;;5048325;28;20192;-75
2021/08/19 04:15:03;;;;;;;2.10;1.90;;;17.60;89.00;;;;;;5048261;28;20426;-75
2021/08/19 04:17:29;;;;;;;3.37;1.90;;;17.60;89.00;;;;;;5047004;28;21082;-75
2021/08/19 04:19:55;;;;;;;3.93;2.30;;;17.60;88.90;;;;;;5046365;28;20529;-75
2021/08/19 04:22:21;;;;;;;6.43;2.27;;;17.60;88.60;;;;;;5045027;28;20212;-75
2021/08/19 04:24:46;;;;;;;5.40;2.67;;;17.50;88.40;;;;;;5050778;28;20267;-75
2021/08/19 04:27:12;;;;;;;2.73;1.97;;;17.60;88.70;;;;;;5050194;28;20433;-75
2021/08/19 04:29:38;;;;;;;2.47;2.07;;;17.70;88.10;;;;;;5061831;28;20199;-76
2021/08/19 04:32:04;;;;;;;5.23;2.20;;;17.70;88.00;;;;;;5051442;28;20201;-77
2021/08/19 04:34:31;;;;;;;6.57;2.30;;;17.80;88.00;;;;;;5042876;28;20607;-75
2021/08/19 04:36:56;;;;;;;3.17;1.90;;;17.90;87.80;;;;;;5043461;28;20562;-74
2021/08/19 04:39:23;;;;;;;2.80;1.93;;;17.80;88.00;;;;;;5042172;28;20524;-75
2021/08/19 04:41:50;;;;;;;2.63;1.80;;;17.90;88.00;;;;;;5044175;28;20617;-74
2021/08/19 04:44:16;;;;;;;3.93;2.10;;;17.90;87.80;;;;;;5040070;28;20425;-74
2021/08/19 04:46:42;;;;;;;4.10;1.97;;;18.00;87.60;;;;;;5039200;28;20463;-75
2021/08/19 04:49:08;;;;;;;2.23;1.70;;;17.90;87.30;;;;;;5045865;28;20501;-74
2021/08/19 04:51:37;;;;;;;2.40;1.67;;;17.90;87.30;;;;;;5042535;28;20339;-75
2021/08/19 04:54:06;;;;;;;2.90;2.10;;;17.90;87.40;;;;;;5043253;28;20192;-75
2021/08/19 04:56:38;;;;;;;2.03;1.60;;;17.90;87.40;;;;;;5044522;28;20442;-74
2021/08/19 04:59:05;;;;;;;3.47;2.00;;;17.90;87.70;;;;;;5045656;28;20447;-75
2021/08/19 05:01:31;;;;;;;3.70;2.30;;;17.90;87.70;;;;;;5039856;28;20434;-74
2021/08/19 05:03:59;;;;;;;5.93;2.00;;;17.90;87.30;;;;;;5043576;28;20432;-76
2021/08/19 05:06:26;;;;;;;3.10;1.73;;;17.90;87.00;;;;;;5043298;28;20932;-75
2021/08/19 05:08:53;;;;;;;2.53;1.80;;;17.90;86.90;;;;;;5035799;28;20424;-75
2021/08/19 05:11:19;;;;;;;2.17;1.73;;;17.90;86.80;;;;;;5035884;28;20453;-75
2021/08/19 05:13:45;;;;;;;2.57;1.67;;;17.90;86.90;;;;;;5042408;28;20445;-76
2021/08/19 05:16:10;;;;;;;2.87;1.90;;;17.90;87.00;;;;;;5041569;28;20277;-76
2021/08/19 05:18:36;;;;;;;2.50;1.70;;;17.90;87.00;;;;;;5047585;28;20210;-76
2021/08/19 05:21:02;;;;;;;2.53;1.70;;;17.90;86.90;;;;;;5046343;28;20709;-78
2021/08/19 05:23:27;;;;;;;1.83;1.67;;;17.90;86.80;;;;;;5043824;28;20177;-75
2021/08/19 05:25:53;;;;;;;2.50;1.93;;;18.00;86.50;;;;;;5043514;28;20191;-75
2021/08/19 05:28:19;;;;;;;2.13;1.77;;;18.00;86.50;;;;;;5045918;28;20663;-75
2021/08/19 05:30:45;;;;;;;2.83;1.87;;;18.00;86.30;;;;;;5048619;28;20227;-76
2021/08/19 05:33:10;;;;;;;2.90;1.93;;;18.00;86.50;;;;;;5043212;28;20860;-76
2021/08/19 05:35:36;;;;;;;3.70;1.90;;;18.00;86.50;;;;;;5047321;28;20200;-75
2021/08/19 05:38:02;;;;;;;4.33;2.13;;;18.00;86.80;;;;;;5040547;28;20234;-74
2021/08/19 05:40:28;;;;;;;2.90;1.90;;;18.00;86.80;;;;;;5049404;28;20247;-78
2021/08/19 05:42:54;;;;;;;2.13;1.50;;;18.10;86.60;;;;;;5051374;28;20582;-76
2021/08/19 05:45:20;;;;;;;2.67;1.60;;;18.10;85.70;;;;;;5045930;28;20440;-76
2021/08/19 05:47:45;;;;;;;4.00;1.80;;;18.00;86.20;;;;;;5050003;28;20189;-77
2021/08/19 05:50:11;;;;;;;2.20;1.80;;;18.00;86.30;;;;;;5043274;28;20197;-76
2021/08/19 05:52:38;;;;;;;6.00;2.00;;;18.10;85.50;;;;;;5049494;28;20702;-76
2021/08/19 05:55:05;;;;;;;2.37;1.80;;;18.20;85.50;;;;;;5042233;28;20428;-77
2021/08/19 05:57:30;;;;;;;3.50;1.80;;;18.20;84.90;;;;;;5047124;28;20845;-76
2021/08/19 05:59:56;;;;;;;2.90;2.10;;;18.20;84.90;;;;;;5047407;28;20432;-75
2021/08/19 06:02:22;;;;;;;2.67;1.73;;;18.30;84.70;;;;;;5046905;28;20204;-76
2021/08/19 06:04:48;;;;;;;4.60;2.07;;;18.40;84.40;;;;;;5044497;28;20188;-76
2021/08/19 06:07:47;;;;;;;4.57;1.83;;;18.40;84.60;;;;;;5048007;28;20192;-79
2021/08/19 06:10:13;;;;;;;6.23;2.00;;;18.40;84.40;;;;;;5041935;28;20187;-75
2021/08/19 06:12:40;;;;;;;6.20;2.03;;;18.50;84.70;;;;;;5041196;28;20434;-76
2021/08/19 06:15:07;;;;;;;3.57;2.10;;;18.50;84.40;;;;;;5042871;28;20495;-76
2021/08/19 06:17:33;;;;;;;3.30;1.80;;;18.60;84.30;;;;;;5048977;28;20467;-78
2021/08/19 06:20:00;;;;;;;3.60;1.73;;;18.70;83.70;;;;;;5042865;28;20424;-77
2021/08/19 06:22:25;;;;;;;2.70;1.93;;;18.70;83.30;;;;;;5049488;28;20522;-72
2021/08/19 06:24:51;;;;;;;3.73;1.83;;;18.80;82.80;;;;;;5036402;28;20449;-73
2021/08/19 06:27:17;;;;;;;3.73;2.23;;;18.90;82.50;;;;;;5049756;28;20546;-74
2021/08/19 06:29:43;;;;;;;2.60;2.10;;;19.00;82.50;;;;;;5054310;28;20180;-74
2021/08/19 06:32:08;;;;;;;3.53;2.30;;;19.00;82.70;;;;;;5049835;28;20234;-73
2021/08/19 06:34:35;;;;;;;4.70;1.70;;;19.20;82.20;;;;;;5043076;28;20183;-74
2021/08/19 06:37:04;;;;;;;3.37;1.90;;;19.20;81.90;;;;;;5045017;28;20216;-75
2021/08/19 06:39:31;;;;;;;3.37;1.70;;;19.30;81.40;;;;;;5043897;28;20446;-74
2021/08/19 06:41:57;;;;;;;3.57;1.70;;;19.30;81.10;;;;;;5049402;28;20857;-75
2021/08/19 06:44:22;;;;;;;3.87;1.97;;;19.40;81.20;;;;;;5050517;28;20804;-74
2021/08/19 06:46:48;;;;;;;3.47;2.60;;;19.50;80.20;;;;;;5051610;28;20498;-73
2021/08/19 06:49:14;;;;;;;3.20;1.93;;;19.40;79.90;;;;;;5051228;28;20181;-75
2021/08/19 06:51:40;;;;;;;2.70;1.70;;;19.30;79.90;;;;;;5051350;28;20202;-74
2021/08/19 06:54:05;;;;;;;1.77;1.43;;;19.20;80.90;;;;;;5052769;28;20191;-76
2021/08/19 06:56:31;;;;;;;3.23;2.03;;;19.00;81.50;;;;;;5049781;28;20242;-74
2021/08/19 06:58:57;;;;;;;2.43;2.13;;;19.00;81.80;;;;;;5045571;28;20223;-74
2021/08/19 07:01:23;;;;;;;3.20;2.17;;;19.10;82.10;;;;;;5050941;28;20444;-74
2021/08/19 07:03:49;;;;;;;2.57;1.70;;;19.20;81.70;;;;;;5045769;28;20200;-74
2021/08/19 07:06:15;;;;;;;2.70;1.90;;;19.10;81.40;;;;;;5050154;28;20218;-74
2021/08/19 07:08:42;;;;;;;3.17;2.03;;;19.00;80.90;;;;;;5052254;28;20443;-75
2021/08/19 07:11:08;;;;;;;2.90;2.07;;;19.10;81.20;;;;;;5050529;28;20881;-74
2021/08/19 07:13:35;;;;;;;2.37;1.43;;;19.10;81.70;;;;;;5051253;28;20423;-75
2021/08/19 07:16:01;;;;;;;4.80;1.77;;;19.00;81.70;;;;;;5046794;28;20459;-76
2021/08/19 07:18:27;;;;;;;2.47;1.87;;;19.10;81.70;;;;;;5052117;28;20475;-75
2021/08/19 07:20:52;;;;;;;4.93;1.77;;;19.10;81.80;;;;;;5046837;28;20544;-75
2021/08/19 07:23:18;;;;;;;2.33;1.60;;;19.00;82.10;;;;;;5048323;28;20181;-75
2021/08/19 07:25:44;;;;;;;2.40;1.70;;;19.00;81.90;;;;;;5041385;28;20189;-73
2021/08/19 07:28:10;;;;;;;2.97;2.20;;;19.10;81.50;;;;;;5047848;28;20196;-74
2021/08/19 07:30:36;;;;;;;3.07;2.07;;;19.10;81.50;;;;;;5052241;28;20444;-74
2021/08/19 07:33:02;;;;;;;2.93;2.10;;;19.20;81.40;;;;;;5052534;28;20442;-74
2021/08/19 07:35:29;;;;;;;2.70;1.90;;;19.40;81.10;;;;;;5057685;28;20454;-73
2021/08/19 07:37:55;;;;;;;4.60;2.10;;;19.50;80.80;;;;;;5053516;28;20999;-75
2021/08/19 07:40:27;;;;;;;4.33;2.17;;;19.50;80.20;;;;;;5053355;28;20438;-75
2021/08/19 07:42:54;;;;;;;2.80;2.10;;;19.60;80.60;;;;;;5051753;28;20510;-75
2021/08/19 07:45:22;;;;;;;2.40;1.80;;;19.80;79.50;;;;;;5050770;28;20498;-74
2021/08/19 07:47:48;;;;;;;5.50;2.00;;;20.00;78.60;;;;;;5051873;28;20788;-74
2021/08/19 07:50:14;;;;;;;3.97;2.17;;;20.00;78.10;;;;;;5051519;28;20905;-75
2021/08/19 07:52:41;;;;;;;2.77;1.80;;;20.20;77.60;;;;;;5051398;28;20830;-75
2021/08/19 07:55:08;;;;;;;2.23;1.70;;;20.20;76.50;;;;;;5046448;28;20421;-74
2021/08/19 07:57:48;;;;;;;3.10;2.03;;;20.40;76.40;;;;;;5038642;28;20483;-73
2021/08/19 08:00:22;;;;;;;1.80;1.60;;;20.50;75.40;;;;;;5043993;28;20954;-74
2021/08/19 08:02:48;;;;;;;2.57;1.90;;;20.40;75.50;;;;;;5041534;28;20434;-75
2021/08/19 08:05:14;;;;;;;1.83;1.70;;;20.30;75.50;;;;;;5043566;28;20425;-75
2021/08/19 08:07:40;;;;;;;4.80;2.30;;;20.20;75.20;;;;;;5049210;28;20514;-74
2021/08/19 08:10:07;;;;;;;2.30;1.90;;;20.20;75.70;;;;;;5040588;28;20713;-74
2021/08/19 08:12:33;;;;;;;3.70;2.00;;;20.30;75.70;;;;;;5046701;28;20192;-75
2021/08/19 08:14:59;;;;;;;5.30;2.40;;;20.10;75.80;;;;;;5046791;28;20813;-76
2021/08/19 08:17:25;;;;;;;2.50;1.53;;;20.20;76.80;;;;;;5046974;28;20473;-73
2021/08/19 08:19:51;;;;;;;3.77;1.93;;;20.40;76.40;;;;;;5043758;28;20188;-76
2021/08/19 08:22:17;;;;;;;2.30;1.90;;;20.40;76.10;;;;;;5045671;28;20462;-74
2021/08/19 08:24:43;;;;;;;2.37;2.00;;;20.30;75.40;;;;;;5041658;28;20176;-74
2021/08/19 08:27:09;;;;;;;2.00;1.70;;;20.40;75.10;;;;;;5037082;28;20935;-74
2021/08/19 08:29:35;;;;;;;2.90;2.10;;;20.30;75.40;;;;;;5046121;28;20526;-74
2021/08/19 08:32:05;;;;;;;2.87;2.00;;;20.40;75.40;;;;;;5049138;28;20216;-73
2021/08/19 08:34:33;;;;;;;3.20;1.87;;;20.40;74.90;;;;;;5045532;28;20519;-73
2021/08/19 08:36:58;;;;;;;2.90;2.17;;;20.50;75.50;;;;;;5043763;28;20481;-74
2021/08/19 08:39:25;;;;;;;4.63;2.10;;;20.70;74.20;;;;;;5044637;28;20803;-75
2021/08/19 08:41:52;;;;;;;2.50;1.97;;;20.90;73.90;;;;;;5046697;28;20680;-73
2021/08/19 08:44:20;;;;;;;2.17;1.80;;;20.90;73.70;;;;;;5048107;28;20507;-74
2021/08/19 08:46:46;;;;;;;5.20;2.00;;;20.90;74.00;;;;;;5049959;28;20424;-74
2021/08/19 08:49:14;;;;;;;2.40;1.70;;;20.80;74.50;;;;;;5042137;28;20433;-75
2021/08/19 08:51:47;;;;;;;3.27;2.07;;;20.80;72.90;;;;;;5048992;28;20923;-75
2021/08/19 08:54:13;;;;;;;4.00;2.00;;;20.80;73.50;;;;;;5049773;28;20519;-74
2021/08/19 08:56:38;;;;;;;3.50;1.87;;;20.80;73.60;;;;;;5049897;28;20867;-74
2021/08/19 08:59:05;;;;;;;3.60;2.27;;;20.70;73.00;;;;;;5050430;28;20460;-73
2021/08/19 09:01:31;;;;;;;3.83;1.80;;;20.90;73.60;;;;;;5043280;28;20193;-73
2021/08/19 09:03:57;;;;;;;2.70;1.90;;;21.00;72.60;;;;;;5045827;28;20937;-74
2021/08/19 09:06:41;;;;;;;5.00;1.87;;;21.10;72.60;;;;;;5050362;28;20791;-73
2021/08/19 09:09:14;;;;;;;4.57;1.70;;;21.10;71.30;;;;;;5039370;28;20507;-74
2021/08/19 09:11:47;;;;;;;3.90;2.40;;;21.00;72.30;;;;;;5043927;28;20444;-75
2021/08/19 09:14:18;;;;;;;3.07;1.90;;;20.80;73.20;;;;;;5049399;28;20419;-74
2021/08/19 09:16:47;;;;;;;4.67;2.60;;;20.80;74.00;;;;;;5048261;28;20430;-73
2021/08/19 09:19:17;;;;;;;6.50;2.27;;;20.90;73.60;;;;;;5049846;28;20430;-73
2021/08/19 09:22:03;;;;;;;3.07;2.30;;;20.80;74.50;;;;;;5043489;28;20909;-74
2021/08/19 09:24:30;;;;;;;4.20;2.57;;;20.50;75.40;;;;;;5045585;28;20411;-75
2021/08/19 09:27:10;;;;;;;2.13;1.93;;;20.40;76.20;;;;;;5039407;28;20434;-76
2021/08/19 09:29:36;;;;;;;3.83;1.90;;;20.40;76.10;;;;;;5047393;28;20419;-75
2021/08/19 09:32:08;;;;;;;2.60;2.00;;;20.60;75.40;;;;;;5050691;28;20443;-75
2021/08/19 09:34:34;;;;;;;2.90;1.73;;;20.70;74.20;;;;;;5044419;28;20425;-75
2021/08/19 09:37:07;;;;;;;4.50;2.00;;;20.80;73.90;;;;;;5047664;28;20436;-74
2021/08/19 09:39:44;;;;;;;2.23;1.80;;;21.10;73.20;;;;;;5045887;28;20848;-74
2021/08/19 09:42:11;;;;;;;2.80;2.30;;;21.20;72.60;;;;;;5054334;28;20439;-73
2021/08/19 09:44:38;;;;;;;3.80;2.03;;;21.30;72.30;;;;;;5054960;28;21142;-74
2021/08/19 09:47:06;;;;;;;3.27;1.80;;;21.50;71.70;;;;;;5054531;28;20448;-74
2021/08/19 09:49:37;;;;;;;3.30;1.67;;;21.70;68.80;;;;;;5053266;28;20421;-75
2021/08/19 09:52:11;;;;;;;3.33;1.80;;;21.80;68.20;;;;;;5054121;28;20566;-74
2021/08/19 09:54:42;;;;;;;2.90;1.40;;;21.70;68.80;;;;;;5053548;28;20408;-74
2021/08/19 09:57:09;;;;;;;2.77;1.47;;;21.50;67.90;;;;;;5053277;28;20462;-74
2021/08/19 09:59:38;;;;;;;2.23;1.60;;;21.40;67.70;;;;;;5053616;28;20450;-74
2021/08/19 10:02:09;;;;;;;5.10;2.33;;;21.40;68.80;;;;;;5046391;28;20442;-74
2021/08/19 10:04:36;;;;;;;1.80;1.30;;;21.50;66.90;;;;;;5045888;28;21096;-74
2021/08/19 10:07:03;;;;;;;3.63;1.50;;;21.60;67.20;;;;;;5048599;28;20426;-74
2021/08/19 10:09:29;;;;;;;2.77;1.40;;;21.50;66.10;;;;;;5045018;28;20946;-73
2021/08/19 10:11:56;;;;;;;4.60;2.00;;;21.70;66.40;;;;;;5045042;28;20830;-74
2021/08/19 10:14:25;;;;;;;2.10;1.40;;;22.10;66.10;;;;;;5050781;28;20533;-74
2021/08/19 10:16:53;;;;;;;1.30;1.00;;;22.30;63.80;;;;;;5046233;28;20436;-75
2021/08/19 10:19:35;;;;;;;3.77;1.40;;;22.00;63.10;;;;;;5050854;28;20425;-75
2021/08/19 10:22:08;;;;;;;1.60;1.07;;;21.90;66.00;;;;;;5048711;28;20468;-74
2021/08/19 10:24:36;;;;;;;2.20;1.20;;;22.20;63.80;;;;;;5043356;28;20530;-73
2021/08/19 10:27:23;;;;;;;4.03;1.60;;;22.50;61.90;;;;;;5038060;28;20430;-74
2021/08/19 10:30:06;;;;;;;4.03;1.87;;;22.60;62.90;;;;;;5042261;28;20513;-75
2021/08/19 10:32:39;;;;;;;2.30;1.47;;;22.70;62.30;;;;;;5036126;28;20434;-75
2021/08/19 10:35:08;;;;;;;2.20;1.40;;;22.80;62.20;;;;;;5038328;28;20867;-74
2021/08/19 10:37:49;;;;;;;2.07;1.23;;;22.90;61.20;;;;;;5046461;28;20550;-74
2021/08/19 10:40:21;;;;;;;1.70;1.33;;;22.70;61.30;;;;;;5044236;28;20461;-74
2021/08/19 10:42:52;;;;;;;2.97;1.53;;;22.70;62.50;;;;;;5055755;28;20427;-73
2021/08/19 10:45:26;;;;;;;2.43;1.43;;;22.90;61.30;;;;;;5063694;28;20409;-75
2021/08/19 10:48:12;;;;;;;1.90;1.43;;;22.80;60.10;;;;;;5040158;28;20446;-75
2021/08/19 10:50:46;;;;;;;1.80;1.40;;;22.80;60.90;;;;;;5042847;28;20519;-74
2021/08/19 10:53:22;;;;;;;2.17;1.60;;;23.00;60.00;;;;;;5045464;28;20936;-74
2021/08/19 10:55:54;;;;;;;2.30;1.53;;;23.10;59.50;;;;;;5039675;28;20474;-74
2021/08/19 10:58:30;;;;;;;2.40;1.50;;;23.10;60.10;;;;;;5045618;28;21027;-75
2021/08/19 11:01:14;;;;;;;3.33;1.80;;;23.20;60.40;;;;;;5041191;28;21055;-74
2021/08/19 11:03:45;;;;;;;3.93;2.07;;;23.30;59.70;;;;;;5045548;28;20428;-76
2021/08/19 11:06:14;;;;;;;5.47;1.60;;;23.50;59.90;;;;;;5043796;28;20513;-73
2021/08/19 11:08:42;;;;;;;3.30;1.47;;;23.60;59.50;;;;;;5037578;28;20442;-74
2021/08/19 11:11:09;;;;;;;1.90;1.50;;;23.20;59.20;;;;;;5040991;28;20443;-75
2021/08/19 11:13:35;;;;;;;3.27;1.70;;;22.70;61.20;;;;;;5038823;28;20488;-74
2021/08/19 11:16:12;;;;;;;2.57;1.57;;;22.40;62.50;;;;;;5038505;28;20422;-75
2021/08/19 11:18:39;;;;;;;1.67;1.40;;;22.40;63.20;;;;;;5040041;28;20476;-74
2021/08/19 11:21:07;;;;;;;3.93;1.70;;;22.20;63.80;;;;;;5043749;28;20446;-76
2021/08/19 11:23:41;;;;;;;2.00;1.57;;;22.20;63.70;;;;;;5037878;28;20931;-77
2021/08/19 11:26:19;;;;;;;3.00;1.87;;;22.30;64.20;;;;;;5043994;28;20967;-75
2021/08/19 11:28:47;;;;;;;2.80;1.60;;;22.40;63.90;;;;;;5042108;28;21035;-75
2021/08/19 11:31:20;;;;;;;3.80;1.67;;;22.40;63.90;;;;;;5046131;28;20475;-74
2021/08/19 11:33:47;;;;;;;7.50;2.00;;;22.30;64.20;;;;;;5045508;28;20432;-75
2021/08/19 11:36:14;;;;;;;2.47;1.50;;;22.10;64.70;;;;;;5047542;28;20449;-75
2021/08/19 11:38:41;;;;;;;1.73;1.33;;;22.10;65.10;;;;;;5045214;28;21005;-74
2021/08/19 11:41:21;;;;;;;4.60;1.70;;;22.00;65.70;;;;;;5044405;28;20438;-75
2021/08/19 11:43:47;;;;;;;4.23;2.23;;;22.20;65.70;;;;;;5051144;28;20430;-73
2021/08/19 11:46:20;;;;;;;3.00;1.93;;;22.20;65.10;;;;;;5044811;28;20434;-74
2021/08/19 11:49:08;;;;;;;1.73;1.40;;;22.20;65.70;;;;;;5045229;28;20422;-74
2021/08/19 11:51:37;;;;;;;3.63;2.03;;;22.20;65.10;;;;;;5046020;28;20446;-74
2021/08/19 11:54:15;;;;;;;3.00;2.00;;;22.30;65.10;;;;;;5041304;28;20445;-74
2021/08/19 11:56:43;;;;;;;6.10;1.97;;;22.50;64.70;;;;;;5045668;28;21023;-74
2021/08/19 11:59:16;;;;;;;3.40;1.80;;;22.70;63.90;;;;;;5037587;28;21067;-74
2021/08/19 12:01:53;;;;;;;2.10;1.60;;;22.90;63.90;;;;;;5046062;28;20455;-73
2021/08/19 12:04:32;;;;;;;1.80;1.43;;;23.30;63.10;;;;;;5047860;28;20422;-73
2021/08/19 12:07:00;;;;;;;2.87;1.90;;;23.30;61.00;;;;;;5039565;28;20434;-74
2021/08/19 12:09:28;;;;;;;2.87;1.70;;;23.20;61.70;;;;;;5047502;28;20434;-74
2021/08/19 12:11:55;;;;;;;2.40;1.63;;;23.40;62.50;;;;;;5045358;28;20436;-74
2021/08/19 12:14:26;;;;;;;3.07;2.00;;;23.60;60.70;;;;;;5045430;28;20455;-76
2021/08/19 12:16:54;;;;;;;3.13;1.60;;;23.70;60.30;;;;;;5043928;28;20873;-74
2021/08/19 12:19:28;;;;;;;3.40;2.13;;;23.90;60.00;;;;;;5043430;28;20509;-74
2021/08/19 12:21:56;;;;;;;2.33;1.80;;;24.20;59.60;;;;;;5043086;28;20436;-74
2021/08/19 12:24:33;;;;;;;5.83;2.13;;;24.40;58.70;;;;;;5042247;28;20419;-74
2021/08/19 12:27:14;;;;;;;2.20;1.67;;;24.10;61.30;;;;;;5046397;28;20481;-75
2021/08/19 12:30:05;;;;;;;2.20;1.67;;;23.90;61.90;;;;;;5041473;28;20423;-73
2021/08/19 12:32:36;;;;;;;2.80;2.00;;;23.90;61.70;;;;;;5046604;28;20441;-74
2021/08/19 12:35:11;;;;;;;2.40;1.80;;;23.90;62.00;;;;;;5049095;28;20441;-77
2021/08/19 12:37:51;;;;;;;3.90;1.70;;;24.00;61.70;;;;;;5046708;28;20474;-76
2021/08/19 12:40:17;;;;;;;2.60;1.73;;;23.90;60.90;;;;;;5048793;28;20768;-74
2021/08/19 12:42:44;;;;;;;4.57;2.10;;;23.60;62.30;;;;;;5049428;28;20522;-74
2021/08/19 12:45:21;;;;;;;4.27;2.23;;;23.60;62.90;;;;;;5046614;28;20281;-74
2021/08/19 12:47:58;;;;;;;3.50;2.00;;;23.30;64.80;;;;;;5044928;28;20797;-74
2021/08/19 12:50:24;;;;;;;3.60;2.03;;;23.10;65.60;;;;;;5050337;28;20421;-74
2021/08/19 12:52:50;;;;;;;4.23;2.00;;;22.90;66.60;;;;;;5050949;28;20441;-74